createdAt,value
2023-05-03T00:00:04.315Z,68.1
2023-05-03T00:03:03.540Z,68.1
2023-05-03T00:06:03.713Z,68.1
2023-05-03T00:09:03.487Z,68.1
2023-05-03T00:12:03.424Z,68.1
2023-05-03T00:15:03.510Z,68.1
2023-05-03T00:18:03.687Z,68.1
2023-05-03T00:21:03.584Z,68.1
2023-05-03T00:24:03.483Z,68.1
2023-05-03T00:27:03.621Z,68.1
2023-05-03T00:30:04.339Z,68.1
2023-05-03T00:33:03.659Z,68.1
2023-05-03T00:36:03.473Z,68.1
2023-05-03T00:39:03.590Z,68.1
2023-05-03T00:42:03.520Z,68.1
2023-05-03T00:45:03.543Z,68.1
2023-05-03T00:48:03.873Z,68.1
2023-05-03T00:51:03.362Z,68.1
2023-05-03T00:54:03.487Z,68.1
2023-05-03T00:57:03.646Z,68.1
2023-05-03T01:00:04.653Z,68.1
2023-05-03T01:03:03.691Z,68.1
2023-05-03T01:06:03.816Z,68.1
2023-05-03T01:09:03.689Z,68.1
2023-05-03T01:12:03.503Z,68.1
2023-05-03T01:15:03.539Z,72.4
2023-05-03T01:18:03.660Z,72.4
2023-05-03T01:21:03.775Z,72.4
2023-05-03T01:24:03.488Z,72.4
2023-05-03T01:27:03.467Z,72.4
2023-05-03T01:30:04.436Z,72.4
2023-05-03T01:33:03.547Z,72.4
2023-05-03T01:36:03.514Z,72.4
2023-05-03T01:39:03.426Z,72.4
2023-05-03T01:42:03.495Z,72.4
2023-05-03T01:45:03.873Z,72.4
2023-05-03T01:48:03.623Z,72.4
2023-05-03T01:51:03.460Z,72.4
2023-05-03T01:54:03.606Z,72.4
2023-05-03T01:57:03.489Z,72.4
2023-05-03T02:00:04.632Z,72.4
2023-05-03T02:03:03.821Z,72.4
2023-05-03T02:06:03.768Z,72.4
2023-05-03T02:09:03.581Z,72.4
2023-05-03T02:12:03.456Z,72.4
2023-05-03T02:15:03.710Z,72.4
2023-05-03T02:18:03.671Z,72.4
2023-05-03T02:21:03.448Z,72.4
2023-05-03T02:24:03.428Z,72.4
2023-05-03T02:27:03.444Z,72.4
2023-05-03T02:30:04.711Z,72.4
2023-05-03T02:33:03.628Z,72.4
2023-05-03T02:36:03.618Z,72.4
2023-05-03T02:39:03.480Z,72.4
2023-05-03T02:42:03.477Z,72.4
2023-05-03T02:45:03.505Z,72.4
2023-05-03T02:48:03.626Z,72.4
2023-05-03T02:51:03.431Z,72.4
2023-05-03T02:54:03.472Z,72.4
2023-05-03T02:57:03.472Z,72.4
2023-05-03T03:00:04.759Z,72.4
2023-05-03T03:03:03.670Z,72.4
2023-05-03T03:06:03.654Z,72.4
2023-05-03T03:09:03.385Z,72.4
2023-05-03T03:12:03.454Z,72.4
2023-05-03T03:15:03.533Z,72.4
2023-05-03T03:18:03.700Z,72.4
2023-05-03T03:21:03.376Z,72.4
2023-05-03T03:24:03.379Z,72.4
2023-05-03T03:27:03.401Z,72.4
2023-05-03T03:30:04.590Z,72.4
2023-05-03T03:33:03.448Z,72.4
2023-05-03T03:36:03.543Z,72.4
2023-05-03T03:39:03.495Z,72.4
2023-05-03T03:42:03.433Z,72.4
2023-05-03T03:45:03.567Z,72.4
2023-05-03T03:48:03.755Z,72.4
2023-05-03T03:51:03.558Z,72.4
2023-05-03T03:54:03.479Z,72.4
2023-05-03T03:57:03.487Z,72.4
2023-05-03T04:00:04.570Z,72.4
2023-05-03T04:03:05.963Z,72.4
2023-05-03T04:06:03.614Z,72.4
2023-05-03T04:09:03.537Z,72.4
2023-05-03T04:12:03.574Z,72.4
2023-05-03T04:15:03.578Z,72.4
2023-05-03T04:18:03.648Z,72.4
2023-05-03T04:21:03.454Z,72.4
2023-05-03T04:24:03.614Z,72.4
2023-05-03T04:27:03.952Z,72.4
2023-05-03T04:30:04.497Z,72.4
2023-05-03T04:36:03.552Z,72.4
2023-05-03T04:39:03.454Z,72.4
2023-05-03T04:42:03.396Z,72.4
2023-05-03T04:45:04.240Z,72.4
2023-05-03T04:48:03.801Z,72.4
2023-05-03T04:51:03.500Z,72.4
2023-05-03T04:54:03.498Z,72.4
2023-05-03T04:57:03.528Z,72.4
2023-05-03T05:00:04.639Z,72.4
2023-05-03T05:03:03.864Z,72.4
2023-05-03T05:06:03.831Z,72.4
2023-05-03T05:09:03.664Z,72.4
2023-05-03T05:12:03.488Z,72.4
2023-05-03T05:15:03.586Z,72.4
2023-05-03T05:18:03.631Z,72.4
2023-05-03T05:21:03.524Z,72.4
2023-05-03T05:24:03.536Z,72.4
2023-05-03T05:27:03.608Z,72.4
2023-05-03T05:30:04.587Z,72.4
2023-05-03T05:33:03.749Z,72.4
2023-05-03T05:36:03.637Z,72.4
2023-05-03T05:39:03.571Z,72.4
2023-05-03T05:42:03.593Z,81.1
2023-05-03T05:45:03.629Z,81.1
2023-05-03T05:48:03.640Z,81.1
2023-05-03T05:51:03.597Z,81.1
2023-05-03T05:54:03.773Z,81.1
2023-05-03T05:57:03.486Z,81.1
2023-05-03T06:00:04.677Z,81.1
2023-05-03T06:03:03.622Z,81.1
2023-05-03T06:06:03.920Z,81.1
2023-05-03T06:09:25.393Z,81.1
2023-05-03T06:12:03.546Z,81.1
2023-05-03T06:15:05.745Z,81.1
2023-05-03T06:18:03.564Z,81.1
2023-05-03T06:21:03.654Z,81.1
2023-05-03T06:24:03.573Z,81.1
2023-05-03T06:27:03.835Z,82.2
2023-05-03T06:30:04.396Z,82.2
2023-05-03T06:33:03.669Z,82.2
2023-05-03T06:36:03.783Z,81.3
2023-05-03T06:39:03.464Z,81.3
2023-05-03T06:42:03.537Z,81.3
2023-05-03T06:45:03.485Z,81.3
2023-05-03T06:48:03.856Z,81.3
2023-05-03T06:51:03.559Z,81.3
2023-05-03T06:54:03.532Z,81.3
2023-05-03T06:57:03.472Z,81.3
2023-05-03T07:00:05.090Z,81.3
2023-05-03T07:03:03.785Z,81.3
2023-05-03T07:06:03.693Z,81.3
2023-05-03T07:09:03.658Z,81.3
2023-05-03T07:12:03.467Z,81.3
2023-05-03T07:15:03.580Z,81.3
2023-05-03T07:18:03.708Z,81.3
2023-05-03T07:21:03.410Z,81.3
2023-05-03T07:24:03.609Z,81.3
2023-05-03T07:27:03.494Z,81.3
2023-05-03T07:30:04.186Z,81.3
2023-05-03T07:33:03.572Z,81.3
2023-05-03T07:36:03.499Z,81.3
2023-05-03T07:39:03.519Z,81.3
2023-05-03T07:42:03.495Z,81.3
2023-05-03T07:45:03.509Z,81.3
2023-05-03T07:48:03.676Z,81.3
2023-05-03T07:51:03.553Z,81.3
2023-05-03T07:54:03.499Z,81.3
2023-05-03T07:57:03.493Z,81.3
2023-05-03T08:00:04.416Z,81.3
2023-05-03T08:03:03.852Z,81.3
2023-05-03T08:06:03.761Z,81.3
2023-05-03T08:09:03.553Z,81.3
2023-05-03T08:12:03.485Z,81.3
2023-05-03T08:15:03.718Z,81.3
2023-05-03T08:18:03.758Z,81.3
2023-05-03T08:21:03.424Z,81.3
2023-05-03T08:24:03.406Z,81.3
2023-05-03T08:27:03.564Z,81.3
2023-05-03T08:30:04.243Z,81.3
2023-05-03T08:33:03.612Z,81.3
2023-05-03T08:36:03.546Z,81.3
2023-05-03T08:39:03.528Z,81.3
2023-05-03T08:42:03.522Z,81.3
2023-05-03T08:45:03.583Z,81.3
2023-05-03T08:48:03.702Z,81.3
2023-05-03T08:51:03.531Z,81.3
2023-05-03T08:54:03.545Z,81.3
2023-05-03T08:57:03.417Z,81.3
2023-05-03T09:00:04.206Z,81.3
2023-05-03T09:03:03.865Z,81.3
2023-05-03T09:06:03.733Z,81.3
2023-05-03T09:09:03.441Z,81.3
2023-05-03T09:12:03.527Z,81.3
2023-05-03T09:15:03.424Z,81.3
2023-05-03T09:18:03.503Z,81.3
2023-05-03T09:21:03.591Z,81.3
2023-05-03T09:24:03.593Z,81.3
2023-05-03T09:27:03.520Z,81.3
2023-05-03T09:30:04.280Z,81.3
2023-05-03T09:33:03.738Z,81.3
2023-05-03T09:36:03.569Z,81.3
2023-05-03T09:39:03.422Z,81.3
2023-05-03T09:42:03.599Z,81.3
2023-05-03T09:45:04.183Z,81.3
2023-05-03T09:48:03.666Z,81.3
2023-05-03T09:51:03.451Z,81.3
2023-05-03T09:54:03.583Z,81.3
2023-05-03T09:57:03.492Z,81.3
2023-05-03T10:00:03.553Z,81.3
2023-05-03T10:03:03.661Z,81.3
2023-05-03T10:06:03.737Z,81.3
2023-05-03T10:09:03.630Z,81.3
2023-05-03T10:12:03.488Z,81.3
2023-05-03T10:15:04.054Z,81.3
2023-05-03T10:18:03.603Z,81.3
2023-05-03T10:21:03.478Z,81.3
2023-05-03T10:24:03.537Z,81.3
2023-05-03T10:27:03.645Z,81.3
2023-05-03T10:30:04.334Z,81.3
2023-05-03T10:33:03.750Z,81.3
2023-05-03T10:36:03.818Z,81.3
2023-05-03T10:39:03.639Z,81.3
2023-05-03T10:42:03.534Z,81.3
2023-05-03T10:45:04.478Z,81.3
2023-05-03T10:48:03.579Z,81.3
2023-05-03T10:51:03.381Z,81.3
2023-05-03T10:54:03.520Z,81.3
2023-05-03T10:57:03.558Z,81.3
2023-05-03T11:00:03.738Z,81.3
2023-05-03T11:03:03.662Z,81.3
2023-05-03T11:06:03.727Z,81.3
2023-05-03T11:09:03.675Z,81.3
2023-05-03T11:12:03.496Z,59.8
2023-05-03T11:15:03.921Z,59.8
2023-05-03T11:18:03.653Z,59.8
2023-05-03T11:21:03.581Z,59.8
2023-05-03T11:24:03.658Z,59.8
2023-05-03T11:27:10.739Z,59.8
2023-05-03T11:30:03.649Z,59.8
2023-05-03T11:33:03.954Z,59.8
2023-05-03T11:36:03.655Z,59.8
2023-05-03T11:39:03.793Z,59.8
2023-05-03T11:42:03.548Z,59.8
2023-05-03T11:45:04.331Z,59.8
2023-05-03T11:48:03.726Z,59.8
2023-05-03T11:51:03.757Z,59.8
2023-05-03T11:54:25.878Z,59.8
2023-05-03T11:57:03.571Z,59.8
2023-05-03T12:00:03.876Z,59.8
2023-05-03T12:03:04.148Z,59.8
2023-05-03T12:06:06.865Z,59.8
2023-05-03T12:09:04.140Z,59.8
2023-05-03T12:12:09.851Z,59.8
2023-05-03T12:15:11.134Z,59.8
2023-05-03T12:18:09.055Z,59.8
2023-05-03T12:21:35.507Z,59.8
2023-05-03T12:24:05.951Z,59.8
2023-05-03T12:27:08.169Z,59.8
2023-05-03T12:30:04.625Z,59.8
2023-05-03T12:33:09.762Z,59.8
2023-05-03T12:36:09.312Z,59.8
2023-05-03T12:39:08.930Z,59.8
2023-05-03T12:45:08.167Z,59.8
2023-05-03T12:48:04.012Z,59.8
2023-05-03T12:51:25.817Z,59.8
2023-05-03T12:54:07.212Z,59.8
2023-05-03T12:57:07.830Z,59.8
2023-05-03T13:00:12.541Z,52.9
2023-05-03T13:06:15.145Z,52.9
2023-05-03T13:09:06.207Z,52.9
2023-05-03T13:12:03.870Z,52.9
2023-05-03T13:15:04.325Z,52.9
2023-05-03T13:18:03.784Z,52.9
2023-05-03T13:21:03.520Z,52.9
2023-05-03T13:24:03.673Z,56
2023-05-03T13:27:03.484Z,56
2023-05-03T13:30:03.654Z,56
2023-05-03T13:33:03.810Z,56
2023-05-03T13:36:03.641Z,56
2023-05-03T13:39:03.448Z,56
2023-05-03T13:42:03.572Z,56
2023-05-03T13:45:03.643Z,56
2023-05-03T13:48:21.209Z,56
2023-05-03T13:51:03.488Z,56
2023-05-03T13:54:03.634Z,56
2023-05-03T13:57:03.624Z,56
2023-05-03T14:00:04.068Z,56
2023-05-03T14:03:03.954Z,56
2023-05-03T14:06:03.666Z,56
2023-05-03T14:09:04.661Z,56
2023-05-03T14:12:03.471Z,56
2023-05-03T14:15:03.549Z,56
2023-05-03T14:18:08.464Z,56
2023-05-03T14:21:03.614Z,56
2023-05-03T14:24:03.500Z,56
2023-05-03T14:27:03.439Z,56
2023-05-03T14:30:04.097Z,56
2023-05-03T14:33:03.681Z,56
2023-05-03T14:36:03.461Z,56
2023-05-03T14:39:03.564Z,56
2023-05-03T14:42:03.555Z,56
2023-05-03T14:45:03.952Z,56
2023-05-03T14:48:03.714Z,56
2023-05-03T14:51:03.723Z,56
2023-05-03T14:54:03.577Z,56
2023-05-03T14:57:03.575Z,56
2023-05-03T15:00:04.661Z,58
2023-05-03T15:03:03.858Z,58
2023-05-03T15:06:03.711Z,58
2023-05-03T15:09:03.557Z,58
2023-05-03T15:12:03.479Z,58
2023-05-03T15:15:03.541Z,58
2023-05-03T15:18:03.666Z,58
2023-05-03T15:21:03.443Z,58
2023-05-03T15:24:03.699Z,58
2023-05-03T15:27:03.559Z,58
2023-05-03T15:30:04.367Z,58
2023-05-03T15:33:03.668Z,58
2023-05-03T15:36:03.593Z,58
2023-05-03T15:39:03.672Z,58
2023-05-03T15:42:03.599Z,58
2023-05-03T15:45:03.701Z,58
2023-05-03T15:48:03.621Z,58
2023-05-03T15:51:03.347Z,58
2023-05-03T15:54:03.452Z,58
2023-05-03T15:57:03.631Z,58
2023-05-03T16:00:03.935Z,58
2023-05-03T16:03:03.679Z,58
2023-05-03T16:06:03.909Z,58
2023-05-03T16:09:03.614Z,58
2023-05-03T16:12:03.493Z,58
2023-05-03T16:15:03.530Z,58
2023-05-03T16:18:03.756Z,58
2023-05-03T16:21:03.599Z,58
2023-05-03T16:24:03.738Z,52.9
2023-05-03T16:27:03.731Z,52.9
2023-05-03T16:30:03.899Z,52.9
2023-05-03T16:33:03.591Z,52.9
2023-05-03T16:36:03.765Z,52.9
2023-05-03T16:39:03.522Z,52.9
2023-05-03T16:42:03.583Z,52.9
2023-05-03T16:45:03.623Z,52.9
2023-05-03T16:48:10.568Z,52.9
2023-05-03T16:51:03.538Z,52.9
2023-05-03T16:54:06.795Z,52.9
2023-05-03T16:57:03.475Z,52.9
2023-05-03T17:00:07.417Z,52.9
2023-05-03T17:03:03.829Z,52.9
2023-05-03T17:06:06.262Z,52.9
2023-05-03T17:09:03.514Z,52.9
2023-05-03T17:12:05.847Z,52.9
2023-05-03T17:15:03.642Z,52.9
2023-05-03T17:18:07.235Z,52.9
2023-05-03T17:21:03.604Z,52.9
2023-05-03T17:24:03.542Z,52.9
2023-05-03T17:27:03.676Z,52.9
2023-05-03T17:30:03.840Z,52.9
2023-05-03T17:33:03.671Z,52.9
2023-05-03T17:36:03.663Z,52.9
2023-05-03T17:39:03.582Z,52.9
2023-05-03T17:42:03.517Z,52.9
2023-05-03T17:45:03.520Z,52.9
2023-05-03T17:48:03.651Z,52.9
2023-05-03T17:51:03.557Z,52.9
2023-05-03T17:54:03.465Z,52.9
2023-05-03T17:57:03.506Z,52.9
2023-05-03T18:00:03.809Z,52.9
2023-05-03T18:03:04.119Z,52.9
2023-05-03T18:06:03.465Z,52.9
2023-05-03T18:09:03.575Z,52.9
2023-05-03T18:12:03.568Z,52.9
2023-05-03T18:15:03.495Z,52.9
2023-05-03T18:18:03.709Z,52.9
2023-05-03T18:21:03.553Z,52.9
2023-05-03T18:24:03.455Z,52.9
2023-05-03T18:27:03.521Z,52.9
2023-05-03T18:30:03.897Z,61.8
2023-05-03T18:33:03.543Z,61.8
2023-05-03T18:36:03.592Z,61.8
2023-05-03T18:39:03.483Z,61.8
2023-05-03T18:42:03.541Z,61.8
2023-05-03T18:45:03.582Z,61.8
2023-05-03T18:48:03.479Z,61.8
2023-05-03T18:51:03.384Z,61.8
2023-05-03T18:54:03.445Z,61.8
2023-05-03T18:57:04.237Z,61.8
2023-05-03T19:00:10.566Z,61.8
2023-05-03T19:03:03.709Z,61.8
2023-05-03T19:06:03.448Z,61.8
2023-05-03T19:09:03.436Z,61.8
2023-05-03T19:12:03.620Z,61.8
2023-05-03T19:15:03.486Z,61.8
2023-05-03T19:18:03.673Z,61.8
2023-05-03T19:21:03.500Z,61.8
2023-05-03T19:24:03.382Z,61.8
2023-05-03T19:27:03.392Z,61.8
2023-05-03T19:30:04.029Z,61.8
2023-05-03T19:33:03.597Z,61.8
2023-05-03T19:36:03.384Z,61.8
2023-05-03T19:39:03.482Z,61.8
2023-05-03T19:42:03.484Z,61.8
2023-05-03T19:45:03.448Z,61.8
2023-05-03T19:48:03.625Z,61.8
2023-05-03T19:51:03.338Z,61.8
2023-05-03T19:54:03.505Z,61.8
2023-05-03T19:57:03.513Z,61.8
2023-05-03T20:00:04.051Z,61.8
2023-05-03T20:03:03.584Z,61.8
2023-05-03T20:06:03.406Z,61.8
2023-05-03T20:09:03.534Z,61.8
2023-05-03T20:12:03.411Z,61.8
2023-05-03T20:15:03.627Z,61.8
2023-05-03T20:18:03.734Z,61.8
2023-05-03T20:21:03.754Z,61.8
2023-05-03T20:24:03.453Z,61.8
2023-05-03T20:27:03.382Z,61.8
2023-05-03T20:30:03.561Z,63.9
2023-05-03T20:33:03.597Z,63.9
2023-05-03T20:36:03.732Z,63.9
2023-05-03T20:39:03.593Z,63.9
2023-05-03T20:42:03.373Z,63.9
2023-05-03T20:45:03.701Z,63.9
2023-05-03T20:48:03.442Z,63.9
2023-05-03T20:51:18.845Z,63.9
2023-05-03T20:54:03.514Z,63.9
2023-05-03T20:57:03.440Z,63.9
2023-05-03T21:00:03.740Z,63.9
2023-05-03T21:03:03.945Z,63.9
2023-05-03T21:06:03.369Z,63.9
2023-05-03T21:09:03.398Z,63.9
2023-05-03T21:12:03.508Z,63.9
2023-05-03T21:15:03.448Z,63.9
2023-05-03T21:18:03.573Z,63.9
2023-05-03T21:21:03.385Z,63.9
2023-05-03T21:24:03.531Z,63.9
2023-05-03T21:27:03.465Z,63.9
2023-05-03T21:30:03.678Z,63.9
2023-05-03T21:33:03.609Z,63.9
2023-05-03T21:36:03.447Z,63.9
2023-05-03T21:39:03.410Z,63.9
2023-05-03T21:42:03.534Z,63.9
2023-05-03T21:45:03.417Z,68
2023-05-03T21:48:03.660Z,68
2023-05-03T21:51:03.404Z,68
2023-05-03T21:54:03.390Z,68
2023-05-03T21:57:03.420Z,68
2023-05-03T22:00:04.944Z,68
2023-05-03T22:03:03.798Z,68
2023-05-03T22:06:03.424Z,68
2023-05-03T22:09:03.361Z,68
2023-05-03T22:12:25.219Z,68
2023-05-03T22:15:03.433Z,68
2023-05-03T22:18:03.537Z,68
2023-05-03T22:21:03.488Z,68
2023-05-03T22:24:03.413Z,68
2023-05-03T22:27:03.619Z,68
2023-05-03T22:30:03.675Z,68
2023-05-03T22:33:03.731Z,68
2023-05-03T22:36:03.369Z,68
2023-05-03T22:39:03.406Z,68
2023-05-03T22:42:03.475Z,68
2023-05-03T22:45:03.550Z,68
2023-05-03T22:48:03.711Z,68
2023-05-03T22:51:03.440Z,68
2023-05-03T22:54:03.437Z,68
2023-05-03T22:57:03.633Z,68
2023-05-03T23:00:03.670Z,68
2023-05-03T23:03:03.681Z,68
2023-05-03T23:06:03.525Z,68
2023-05-03T23:09:03.474Z,68
2023-05-03T23:12:03.430Z,68
2023-05-03T23:15:03.376Z,68
2023-05-03T23:18:03.559Z,68
2023-05-03T23:21:03.411Z,68
2023-05-03T23:24:03.522Z,68
2023-05-03T23:27:03.881Z,68
2023-05-03T23:30:04.186Z,68
2023-05-03T23:33:03.975Z,68
2023-05-03T23:36:03.519Z,68
2023-05-03T23:39:03.363Z,68
2023-05-03T23:42:03.476Z,68
2023-05-03T23:45:03.419Z,68
2023-05-03T23:48:03.622Z,68
2023-05-03T23:51:03.349Z,68
2023-05-03T23:54:03.402Z,68
2023-05-03T23:57:03.431Z,68
